Flight Track Log - Related Links

Times and Time Zones

All times are in EDT time to prevent confusion due to time zone crossing. See the SWA16 flight status page for this flight to view local times or setup timezone preferences in your user account.

Time Position Orientation Groundspeed Altitude Reporting Facility
EDT Latitude Longitude Course Direction KTS MPH feet Rate Location/Type
Wed 05:13:41 PM 36.1250 -115.1253 46° Northeast 204 235 4,500  Level Los Angeles Center
Wed 05:14:36 PM 36.1347 -115.0503 81° East 250 288 6,900 2,829 Climbing Los Angeles Center
Wed 05:14:51 PM 36.1369 -115.0283 83° East 238 274 7,800 3,639 Climbing Los Angeles Center
Wed 05:15:37 PM 36.1458 -114.9533 82° East 283 326 10,600 3,290 Climbing Los Angeles Center
Wed 05:15:53 PM 36.1492 -114.9328 79° East 270 311 11,200 2,231 Climbing Los Angeles Center
Wed 05:16:55 PM 36.1586 -114.8192 84° East 322 371 13,500 2,496 Climbing Los Angeles Center
Wed 05:17:58 PM 36.1869 -114.6969 74° East 368 423 16,400 2,592 Climbing Los Angeles Center
Wed 05:19:00 PM 36.1889 -114.5614 89° East 396 456 18,900 1,935 Climbing Los Angeles Center
Wed 05:20:02 PM 36.1889 -114.3914 90° East 411 473 20,400 1,887 Climbing Los Angeles Center
Wed 05:21:04 PM 36.1919 -114.2439 88° East 426 490 22,800 2,371 Climbing Los Angeles Center
Wed 05:22:06 PM 36.2106 -114.0914 81° East 444 511 25,300 1,984 Climbing Los Angeles Center
Wed 05:23:08 PM 36.2294 -113.9339 81° East 459 528 26,900 1,412 Climbing Los Angeles Center
Wed 05:24:22 PM 36.2489 -113.7694 82° East 478 550 28,500 1,533 Climbing Los Angeles Center
Wed 05:25:25 PM 36.2731 -113.5656 82° East 497 572 30,400 1,872 Climbing Los Angeles Center
Wed 05:26:27 PM 36.2969 -113.3586 82° East 506 582 32,400 1,645 Climbing Los Angeles Center
Wed 05:27:29 PM 36.3214 -113.1986 79° East 508 585 33,800 1,306 Climbing Los Angeles Center
Wed 05:28:31 PM 36.3814 -113.0400 65° Northeast 510 587 35,100 1,403 Climbing Los Angeles Center
Wed 05:29:33 PM 36.4483 -112.8875 61° Northeast 507 583 36,700 1,584 Climbing Los Angeles Center
Wed 05:30:36 PM 36.5225 -112.7019 64° Northeast 503 579 38,400 1,056 Climbing Los Angeles Center
Wed 05:31:38 PM 36.5839 -112.5483 64° Northeast 500 575 38,900 290 Climbing Los Angeles Center
Wed 05:32:40 PM 36.6489 -112.3922 63° Northeast 508 585 39,000 48 Climbing Los Angeles Center
Wed 05:33:42 PM 36.7122 -112.2331 64° Northeast 515 593 39,000  Level Los Angeles Center
Wed 05:34:44 PM 36.7775 -112.0742 63° Northeast 517 595 39,000  Level Los Angeles Center
Wed 05:35:42 PM 36.8411 -111.9144 64° Northeast 519 597 39,000  Level Denver Center
Wed 05:36:44 PM 36.9167 -111.7231 64° Northeast 517 595 39,000  Level Denver Center
Wed 05:37:46 PM 36.9803 -111.5644 63° Northeast 515 593 39,000  Level Denver Center
Wed 05:39:01 PM 37.0547 -111.3758 64° Northeast 509 586 39,000  Level Denver Center
Wed 05:40:03 PM 37.1161 -111.2178 64° Northeast 508 585 39,000  Level Denver Center
Wed 05:41:04 PM 37.1642 -111.0917 64° Northeast 506 582 39,000  Level Denver Center
Wed 05:42:07 PM 37.2381 -110.9025 64° Northeast 504 580 39,000  Level Denver Center
Wed 05:43:09 PM 37.3117 -110.7125 64° Northeast 506 582 39,000  Level Denver Center
Wed 05:44:11 PM 37.3719 -110.5550 64° Northeast 503 579 39,000  Level Denver Center
Wed 05:45:13 PM 37.4328 -110.3967 64° Northeast 503 579 39,000  Level Denver Center
Wed 05:46:15 PM 37.4936 -110.2347 65° Northeast 503 579 39,000  Level Denver Center
Wed 05:47:17 PM 37.5608 -110.0578 64° Northeast 501 577 39,000  Level Denver Center
Wed 05:48:19 PM 37.6178 -109.9064 65° Northeast 499 574 39,000  Level Denver Center
Wed 05:49:21 PM 37.6844 -109.7292 65° Northeast 498 573 39,000  Level Denver Center
Wed 05:50:23 PM 37.7414 -109.5744 65° Northeast 505 581 39,000  Level Denver Center
Wed 05:51:25 PM 37.7986 -109.4203 65° Northeast 506 582 39,000  Level Denver Center
Wed 05:52:27 PM 37.8650 -109.2386 65° Northeast 507 583 39,000  Level Denver Center
Wed 05:53:29 PM 37.9228 -109.0819 65° Northeast 512 589 39,000  Level Denver Center
Wed 05:54:31 PM 37.9894 -108.8994 65° Northeast 510 587 39,000  Level Denver Center
Wed 05:55:33 PM 38.0458 -108.7444 65° Northeast 507 583 39,000  Level Denver Center
Wed 05:56:35 PM 38.1064 -108.5708 66° East 520 598 39,000  Level Denver Center
Wed 05:57:37 PM 38.1725 -108.3867 65° Northeast 517 595 39,000  Level Denver Center
Wed 05:58:39 PM 38.2292 -108.2283 65° Northeast 514 592 39,000  Level Denver Center
Wed 05:59:44 PM 38.2961 -108.0394 66° East 522 601 39,000  Level Denver Center
Wed 06:00:46 PM 38.3622 -107.8492 66° East 527 606 39,000  Level Denver Center
Wed 06:01:48 PM 38.4186 -107.6894 66° East 522 601 39,000  Level Denver Center
Wed 06:02:50 PM 38.4931 -107.5044 63° Northeast 527 606 39,000  Level Denver Center
Wed 06:03:52 PM 38.5619 -107.3497 60° Northeast 523 602 39,000  Level Denver Center
Wed 06:04:54 PM 38.6286 -107.1972 61° Northeast 517 595 39,000 -435 Level Denver Center
Wed 06:05:56 PM 38.7028 -107.0336 60° Northeast 518 596 38,100 -919 Descending Denver Center
Wed 06:06:58 PM 38.7731 -106.8742 60° Northeast 517 595 37,100 -1,016 Descending Denver Center
Wed 06:08:00 PM 38.8614 -106.6794 60° Northeast 526 605 36,000 -1,548 Descending Denver Center
Wed 06:09:02 PM 38.9297 -106.5281 60° Northeast 526 605 33,900 -2,516 Descending Denver Center
Wed 06:10:04 PM 39.0122 -106.3450 60° Northeast 531 611 30,800 -2,710 Descending Denver Center
Wed 06:11:06 PM 39.0808 -106.1903 60° Northeast 525 604 28,300 -2,468 Descending Denver Center
Wed 06:12:08 PM 39.1561 -106.0236 60° Northeast 507 583 25,700 -2,371 Descending Denver Center
Wed 06:13:10 PM 39.2225 -105.8706 61° Northeast 490 564 23,400 -2,226 Descending Denver Center
Wed 06:14:12 PM 39.2867 -105.7278 60° Northeast 459 528 21,100 -2,274 Descending Denver Center
Wed 06:15:14 PM 39.3544 -105.5703 61° Northeast 431 496 18,700 -1,548 Descending Denver Center
Wed 06:16:16 PM 39.3867 -105.4458 71° East 390 449 17,900 -864 Descending Denver Center
Wed 06:17:19 PM 39.3806 -105.3081 93° East 360 414 16,900 -1,536 Descending Denver Center
Wed 06:18:21 PM 39.3772 -105.1811 92° East 354 407 14,700 -1,452 Descending Denver Center
Wed 06:19:23 PM 39.3750 -105.0461 91° East 352 405 13,900 -581 Descending Denver Center
Wed 06:20:25 PM 39.3756 -104.9394 90° East 307 353 13,500 -677 Descending Denver Center
Wed 06:21:27 PM 39.3736 -104.8375 91° East 273 314 12,500 -726 Descending Denver Center
Wed 06:22:29 PM 39.4006 -104.7581 66° East 259 298 12,000 -387 Descending Denver Center
Wed 06:23:31 PM 39.4656 -104.7114 29° Northeast 248 285 11,700 -484 Descending Denver Center
Wed 06:24:33 PM 39.5264 -104.6708 27° Northeast 246 283 11,000 -871 Descending Denver Center
Wed 06:25:35 PM 39.5936 -104.6636 North 242 278 9,900 -1,161 Descending Denver Center
Wed 06:26:37 PM 39.6667 -104.6628 North 245 282 8,600 -1,161 Descending Denver Center
Wed 06:27:39 PM 39.7261 -104.6617 North 221 254 7,500 -1,016 Descending Denver Center
Wed 06:28:41 PM 39.7753 -104.6619 360° North 170 196 6,500 -871 Descending Denver Center
Wed 06:29:43 PM 39.8156 -104.6606 North 147 169 5,700 -532 Descending Denver Center
Wed 06:30:45 PM 39.8500 -104.6617 359° North 133 153 5,400 -290 Descending Denver Center
Wed 06:32:00 PM 39.8617 -104.6732 323° Northwest  Level Estimated
Wed 06:39:00 PM 39.8617 -104.6732 142° Southeast  Level Estimated
Wed 06:40:00 PM 39.8617 -104.6732 142° Southeast  Level Estimated

Login

Don't have an account? Register now (free) for customized features, flight alerts, and more!